Map

Track Data

SID SEASON NUMBER BASIN SUBBASIN NAME ISO_TIME NATURE LAT LON WMO_WIND WMO_PRES WMO_AGENCY TRACK_TYPE DIST2LAND LANDFALL IFLAG USA_AGENCY USA_ATCF_ID USA_LAT USA_LON USA_RECORD USA_STATUS USA_WIND USA_PRES USA_SSHS USA_R34_NE USA_R34_SE USA_R34_SW USA_R34_NW USA_R50_NE USA_R50_SE USA_R50_SW USA_R50_NW USA_R64_NE USA_R64_SE USA_R64_SW USA_R64_NW USA_POCI USA_ROCI USA_RMW USA_EYE TOKYO_LAT TOKYO_LON TOKYO_GRADE TOKYO_WIND TOKYO_PRES TOKYO_R50_DIR TOKYO_R50_LONG TOKYO_R50_SHORT TOKYO_R30_DIR TOKYO_R30_LONG TOKYO_R30_SHORT TOKYO_LAND CMA_LAT CMA_LON CMA_CAT CMA_WIND CMA_PRES HKO_LAT HKO_LON HKO_CAT HKO_WIND HKO_PRES NEWDELHI_LAT NEWDELHI_LON NEWDELHI_GRADE NEWDELHI_WIND NEWDELHI_PRES NEWDELHI_CI NEWDELHI_DP NEWDELHI_POCI REUNION_LAT REUNION_LON REUNION_TYPE REUNION_WIND REUNION_PRES REUNION_TNUM REUNION_CI REUNION_RMW REUNION_R34_NE REUNION_R34_SE REUNION_R34_SW REUNION_R34_NW REUNION_R50_NE REUNION_R50_SE REUNION_R50_SW REUNION_R50_NW REUNION_R64_NE REUNION_R64_SE REUNION_R64_SW REUNION_R64_NW BOM_LAT BOM_LON BOM_TYPE BOM_WIND BOM_PRES BOM_TNUM BOM_CI BOM_RMW BOM_R34_NE BOM_R34_SE BOM_R34_SW BOM_R34_NW BOM_R50_NE BOM_R50_SE BOM_R50_SW BOM_R50_NW BOM_R64_NE BOM_R64_SE BOM_R64_SW BOM_R64_NW BOM_ROCI BOM_POCI BOM_EYE BOM_POS_METHOD BOM_PRES_METHOD NADI_LAT NADI_LON NADI_CAT NADI_WIND NADI_PRES WELLINGTON_LAT WELLINGTON_LON WELLINGTON_WIND WELLINGTON_PRES DS824_LAT DS824_LON DS824_STAGE DS824_WIND DS824_PRES TD9636_LAT TD9636_LON TD9636_STAGE TD9636_WIND TD9636_PRES TD9635_LAT TD9635_LON TD9635_WIND TD9635_PRES TD9635_ROCI NEUMANN_LAT NEUMANN_LON NEUMANN_CLASS NEUMANN_WIND NEUMANN_PRES MLC_LAT MLC_LON MLC_CLASS MLC_WIND MLC_PRES USA_GUST BOM_GUST BOM_GUST_PER REUNION_GUST REUNION_GUST_PER USA_SEAHGT USA_SEARAD_NE USA_SEARAD_SE USA_SEARAD_SW USA_SEARAD_NW STORM_SPEED STORM_DIR
1964202N12248 1964 46 EP MM PRUDENCE 1964-07-20 00:00:00 TS 12.3000 -112.100 45 hurdat_epa main 1098 1098 O________OO___ hurdat_epa EP031964 12.3000 -112.100 TS 45 0 12.3000 -112.100 TC 45 12.3000 -112.100 2 13 278
1964202N12248 1964 46 EP MM PRUDENCE 1964-07-20 03:00:00 TS 12.3845 -112.750 main 1144 1144 P________PP___ EP031964 12.3752 -112.745 TS 45 0 12.3752 -112.745 TC 45 12.4217 -112.772 2 13 279
1964202N12248 1964 46 EP MM PRUDENCE 1964-07-20 06:00:00 TS 12.5128 -113.407 45 hurdat_epa main 1182 1182 O________OP___ hurdat_epa EP031964 12.5000 -113.400 TS 45 0 12.5000 -113.400 TC 45 12.5640 -113.435 2 13 285
1964202N12248 1964 46 EP MM PRUDENCE 1964-07-20 09:00:00 TS 12.7198 -114.068 main 1220 1209 P________PP___ EP031964 12.7124 -114.065 TS 45 0 12.7124 -114.065 TC 45 12.7493 -114.081 2 14 291
1964202N12248 1964 46 EP MM PRUDENCE 1964-07-20 12:00:00 TS 13.0000 -114.700 45 hurdat_epa main 1213 1201 O________OO___ hurdat_epa EP031964 13.0000 -114.700 TS 45 0 13.0000 -114.700 TC 45 13.0000 -114.700 2 13 298
1964202N12248 1964 46 EP MM PRUDENCE 1964-07-20 15:00:00 TS 13.3333 -115.269 main 1210 1191 P________PP___ EP031964 13.3348 -115.265 TS 45 0 13.3348 -115.265 TC 45 13.3275 -115.286 2 13 303
1964202N12248 1964 46 EP MM PRUDENCE 1964-07-20 18:00:00 TS 13.6999 -115.809 45 hurdat_epa main 1197 1187 O________OP___ hurdat_epa EP031964 13.7000 -115.800 TS 45 0 13.7000 -115.800 TC 45 13.6993 -115.844 2 13 305
1964202N12248 1964 46 EP MM PRUDENCE 1964-07-20 21:00:00 TS 14.0722 -116.362 main 1193 1189 P________PP___ EP031964 14.0724 -116.357 TS 45 0 14.0724 -116.357 TC 45 14.0714 -116.380 2 13 303
1964202N12248 1964 46 EP MM PRUDENCE 1964-07-21 00:00:00 TS 14.4000 -116.900 45 hurdat_epa main 1196 1193 O________OO___ hurdat_epa EP031964 14.4000 -116.900 TS 45 0 14.4000 -116.900 TC 45 14.4000 -116.900 2 12 299
1964202N12248 1964 46 EP MM PRUDENCE 1964-07-21 03:00:00 TS 14.6321 -117.408 main 1211 1209 P________PP___ EP031964 14.6298 -117.408 TS 45 0 14.6298 -117.408 TC 45 14.6410 -117.411 2 11 293
1964202N12248 1964 46 EP MM PRUDENCE 1964-07-21 06:00:00 TS 14.8063 -117.902 45 hurdat_epa main 1229 1227 O________OP___ hurdat_epa EP031964 14.8000 -117.900 TS 45 0 14.8000 -117.900 TC 45 14.8317 -117.908 2 10 290
1964202N12248 1964 46 EP MM PRUDENCE 1964-07-21 09:00:00 TS 14.9742 -118.400 main 1248 1248 P________PP___ EP031964 14.9724 -118.400 TS 45 0 14.9724 -118.400 TC 45 14.9816 -118.401 2 10 287
1964202N12248 1964 46 EP MM PRUDENCE 1964-07-21 12:00:00 TS 15.1000 -118.900 45 hurdat_epa main 1278 1278 O________OO___ hurdat_epa EP031964 15.1000 -118.900 TS 45 0 15.1000 -118.900 TC 45 15.1000 -118.900 2 10 281
1964202N12248 1964 46 EP MM PRUDENCE 1964-07-21 15:00:00 TS 15.1650 -119.399 main 1307 1307 P________PP___ EP031964 15.1573 -119.393 TS 45 0 15.1573 -119.393 TC 45 15.1955 -119.426 2 10 277
1964202N12248 1964 46 EP MM PRUDENCE 1964-07-21 18:00:00 TS 15.2130 -119.912 45 hurdat_epa main 1338 1338 O________OP___ hurdat_epa EP031964 15.2000 -119.900 TS 45 0 15.2000 -119.900 TC 45 15.2648 -119.958 2 10 277
1964202N12248 1964 46 EP MM PRUDENCE 1964-07-21 21:00:00 TS 15.2993 -120.457 main 1368 1368 P________PP___ EP031964 15.2925 -120.450 TS 45 0 15.2925 -120.450 TC 45 15.3267 -120.486 2 11 280
1964202N12248 1964 46 EP MM PRUDENCE 1964-07-22 00:00:00 TS 15.4000 -121.000 45 hurdat_epa main 1393 1393 O________OO___ hurdat_epa EP031964 15.4000 -121.000 TS 45 0 15.4000 -121.000 TC 45 15.4000 -121.000 2 10 281
1964202N12248 1964 46 EP MM PRUDENCE 1964-07-22 03:00:00 TS 15.4952 -121.514 main 1420 1420 P________PP___ EP031964 15.4924 -121.515 TS 45 0 15.4924 -121.515 TC 45 15.5064 -121.510 2 10 282
1964202N12248 1964 46 EP MM PRUDENCE 1964-07-22 06:00:00 TS 15.6055 -122.001 45 hurdat_epa main 1449 1449 O________OP___ hurdat_epa EP031964 15.6000 -122.000 TS 45 0 15.6000 -122.000 TC 45 15.6273 -122.002 2 10 285
1964202N12248 1964 46 EP MM PRUDENCE 1964-07-22 09:00:00 TS 15.7459 -122.472 main 1478 1470 P________PP___ EP031964 15.7424 -122.472 TS 45 0 15.7424 -122.472 TC 45 15.7596 -122.469 2 9 289
1964202N12248 1964 46 EP MM PRUDENCE 1964-07-22 12:00:00 TS 15.9000 -122.900 45 hurdat_epa main 1493 1493 O________OO___ hurdat_epa EP031964 15.9000 -122.900 TS 45 0 15.9000 -122.900 TC 45 15.9000 -122.900 2 8 291
1964202N12248 1964 46 EP MM PRUDENCE 1964-07-22 15:00:00 TS 16.0435 -123.269 main 1517 1509 P________PP___ EP031964 16.0499 -123.265 TS 45 0 16.0499 -123.265 TC 45 16.0179 -123.282 2 7 293
1964202N12248 1964 46 EP MM PRUDENCE 1964-07-22 18:00:00 TS 16.1894 -123.606 45 hurdat_epa main 1526 1526 O________OP___ hurdat_epa EP031964 16.2000 -123.600 TS 45 0 16.2000 -123.600 TC 45 16.1468 -123.631 2 7 293
1964202N12248 1964 46 EP MM PRUDENCE 1964-07-22 21:00:00 TS 16.3284 -123.953 main 1551 1544 P________PP___ EP031964 16.3349 -123.950 TS 45 0 16.3349 -123.950 TC 45 16.3023 -123.964 2 7 295
1964202N12248 1964 46 EP MM PRUDENCE 1964-07-23 00:00:00 TS 16.5000 -124.300 45 hurdat_epa main 1562 1562 O________OO___ hurdat_epa EP031964 16.5000 -124.300 TS 45 0 16.5000 -124.300 TC 45 16.5000 -124.300 2 8 301
1964202N12248 1964 46 EP MM PRUDENCE 1964-07-23 03:00:00 TS 16.7240 -124.645 main 1574 1568 P________PP___ EP031964 16.7199 -124.643 TS 45 0 16.7199 -124.643 TC 45 16.7403 -124.652 2 8 307
1964202N12248 1964 46 EP MM PRUDENCE 1964-07-23 06:00:00 TS 17.0049 -125.003 45 hurdat_epa main 1575 1570 O________OP___ hurdat_epa EP031964 17.0000 -125.000 TS 45 0 17.0000 -125.000 TC 45 17.0245 -125.013 2 9 311
1964202N12248 1964 46 EP MM PRUDENCE 1964-07-23 09:00:00 TS 17.3312 -125.387 main 1577 1565 P________PP___ EP031964 17.3274 -125.385 TS 45 0 17.3274 -125.385 TC 45 17.3465 -125.393 2 10 312
1964202N12248 1964 46 EP MM PRUDENCE 1964-07-23 12:00:00 TS 17.7000 -125.800 45 hurdat_epa main 1571 1568 O________OO___ hurdat_epa EP031964 17.7000 -125.800 TS 45 0 17.7000 -125.800 TC 45 17.7000 -125.800 2 11 314
1964202N12248 1964 46 EP MM PRUDENCE 1964-07-23 15:00:00 TS 18.0987 -126.235 main 1568 1567 P________PP___ EP031964 18.0924 -126.235 TS 45 0 18.0924 -126.235 TC 45 18.1238 -126.233 2 12 314
1964202N12248 1964 46 EP MM PRUDENCE 1964-07-23 18:00:00 TS 18.5134 -126.699 45 hurdat_epa main 1575 1575 O________OP___ hurdat_epa EP031964 18.5000 -126.700 TS 45 0 18.5000 -126.700 TC 45 18.5671 -126.696 2 12 313
1964202N12248 1964 46 EP MM PRUDENCE 1964-07-23 21:00:00 TS 18.9392 -127.185 main 1585 1577 P________PP___ EP031964 18.9299 -127.185 TS 45 0 18.9299 -127.185 TC 45 18.9768 -127.186 2 12 310
1964202N12248 1964 46 EP MM PRUDENCE 1964-07-24 00:00:00 TS 19.3000 -127.700 45 hurdat_epa main 1597 1597 O________OO___ hurdat_epa EP031964 19.3000 -127.700 TS 45 0 19.3000 -127.700 TC 45 19.3000 -127.700 2 12 302
1964202N12248 1964 46 EP MM PRUDENCE 1964-07-24 03:00:00 TS 19.5536 -128.241 main 1618 1618 P________PP___ EP031964 19.5674 -128.243 TS 45 0 19.5674 -128.243 TC 45 19.4983 -128.234 2 11 290
1964202N12248 1964 46 EP MM PRUDENCE 1964-07-24 06:00:00 TS 19.6783 -128.796 45 hurdat_epa main 1662 1662 O________OP___ hurdat_epa EP031964 19.7000 -128.800 TS 45 0 19.7000 -128.800 TC 45 19.5914 -128.782 2 11 277
1964202N12248 1964 46 EP MM PRUDENCE 1964-07-24 09:00:00 TS 19.6750 -129.350 main 1705 1705 P________PP___ EP031964 19.6903 -129.353 TS 45 0 19.6903 -129.353 TC 45 19.6138 -129.339 2 10 266
1964202N12248 1964 46 EP MM PRUDENCE 1964-07-24 12:00:00 TS 19.6000 -129.900 45 hurdat_epa main 1764 O________OO___ hurdat_epa EP031964 19.6000 -129.900 TS 45 0 19.6000 -129.900 TC 45 19.6000 -129.900 2 10 262

About IBTrACS Database

This database is a web-friendly format of International Best Track Archive for Climate Stewardship (IBTrACS), a global best track data archive curated by NOAA dating back to 1842.

Updated: 2021-11-26